Time;durP1;ratioP1;P1;durP2;ratioP2;P2;SDS_P1;SDS_P2;PMS_P1;PMS_P2;Temp;Humidity;BMP_temperature;BMP_pressure;BME280_temperature;BME280_humidity;BME280_pressure;Samples;Min_cycle;Max_cycle;Signal;HPM_P1;HPM_P2
2021/06/24 00:01:06;;;;;;;4.07;3.73;;;;;;;18.22;66.46;101299.91;5073952;28;20327;-80
2021/06/24 00:06:54;;;;;;;6.57;4.57;;;;;;;18.18;66.41;101303.84;5073216;28;20186;-80
2021/06/24 00:09:21;;;;;;;5.97;4.30;;;;;;;18.17;66.41;101307.53;5074362;28;20260;-79
2021/06/24 00:11:49;;;;;;;5.80;3.80;;;;;;;18.17;66.51;101307.53;5074210;28;20295;-80
2021/06/24 00:14:16;;;;;;;5.97;3.90;;;;;;;18.15;66.75;101314.88;5074362;28;20240;-79
2021/06/24 00:16:42;;;;;;;5.33;4.43;;;;;;;18.13;66.90;101303.38;5074877;28;20205;-80
2021/06/24 00:19:09;;;;;;;6.57;4.20;;;;;;;18.11;67.09;101302.63;5073951;28;20288;-79
2021/06/24 00:21:36;;;;;;;7.40;3.93;;;;;;;18.10;67.24;101301.78;5074125;28;20670;-79
2021/06/24 00:24:02;;;;;;;6.70;4.03;;;;;;;18.09;67.27;101289.31;5073441;28;20235;-80
2021/06/24 00:26:29;;;;;;;4.87;4.33;;;;;;;18.08;67.39;101292.13;5081121;28;20295;-80
2021/06/24 00:28:57;;;;;;;4.83;4.20;;;;;;;18.04;67.50;101287.00;5077639;28;20667;-80
2021/06/24 00:31:23;;;;;;;6.07;4.43;;;;;;;18.00;67.63;101285.53;5073630;28;20487;-79
2021/06/24 00:33:50;;;;;;;4.70;4.23;;;;;;;17.96;67.75;101288.63;5073489;28;20271;-79
2021/06/24 00:36:17;;;;;;;5.33;4.33;;;;;;;17.92;68.22;101298.78;5073890;28;20233;-79
2021/06/24 00:38:43;;;;;;;8.73;4.37;;;;;;;17.88;68.20;101293.81;5073558;28;20768;-80
2021/06/24 00:41:10;;;;;;;6.87;4.63;;;;;;;17.86;68.33;101287.69;5072927;28;20259;-80
2021/06/24 00:43:37;;;;;;;7.10;4.50;;;;;;;17.82;68.42;101270.94;5073183;28;20741;-80
2021/06/24 00:46:05;;;;;;;6.70;4.40;;;;;;;17.78;68.51;101274.84;5073487;28;20243;-80
2021/06/24 00:48:31;;;;;;;4.93;4.30;;;;;;;17.77;68.78;101277.66;5073304;28;20318;-80
2021/06/24 00:50:58;;;;;;;5.33;4.30;;;;;;;17.75;68.74;101282.31;5073460;28;20232;-80
2021/06/24 00:53:25;;;;;;;7.27;4.07;;;;;;;17.75;68.92;101279.63;5072965;28;20243;-80
2021/06/24 00:55:52;;;;;;;5.87;4.47;;;;;;;17.73;68.80;101273.53;5074360;28;20204;-80
2021/06/24 00:58:21;;;;;;;5.70;4.93;;;;;;;17.71;68.69;101273.66;5077574;28;20314;-80
2021/06/24 01:00:50;;;;;;;5.77;4.07;;;;;;;17.69;68.95;101276.50;5077193;28;20238;-79
2021/06/24 01:03:18;;;;;;;5.70;4.30;;;;;;;17.67;68.84;101283.84;5084537;28;20715;-79
2021/06/24 01:05:46;;;;;;;6.23;4.40;;;;;;;17.64;68.79;101272.47;5098474;28;20635;-79
2021/06/24 01:08:15;;;;;;;5.80;4.10;;;;;;;17.60;68.92;101282.59;5098114;28;20245;-79
2021/06/24 01:10:44;;;;;;;5.03;3.80;;;;;;;17.57;69.10;101280.16;5097935;28;20211;-79
2021/06/24 01:13:12;;;;;;;6.93;4.33;;;;;;;17.54;69.09;101279.56;5097736;28;20715;-79
2021/06/24 01:15:38;;;;;;;6.30;4.10;;;;;;;17.50;69.26;101270.03;5097856;28;20302;-79
2021/06/24 01:18:05;;;;;;;6.47;4.77;;;;;;;17.47;69.43;101270.28;5097650;28;20309;-80
2021/06/24 01:20:36;;;;;;;5.13;4.10;;;;;;;17.41;69.53;101268.94;5097518;28;20268;-79
2021/06/24 01:23:05;;;;;;;4.43;4.03;;;;;;;17.39;69.56;101283.50;5097256;28;20191;-79
2021/06/24 01:25:34;;;;;;;5.83;4.73;;;;;;;17.35;69.29;101286.47;5097396;28;20296;-80
2021/06/24 01:28:02;;;;;;;6.13;4.33;;;;;;;17.33;69.84;101285.72;5089723;28;20214;-79
2021/06/24 01:30:30;;;;;;;5.53;4.67;;;;;;;17.31;69.68;101279.63;5076271;28;20205;-79
2021/06/24 01:32:57;;;;;;;6.37;4.03;;;;;;;17.31;69.95;101276.91;5075804;28;20207;-80
2021/06/24 01:35:28;;;;;;;9.00;4.30;;;;;;;17.29;69.88;101273.50;5076058;28;20664;-79
2021/06/24 01:37:56;;;;;;;7.33;4.13;;;;;;;17.27;70.07;101267.38;5075824;28;20234;-79
2021/06/24 01:40:23;;;;;;;9.60;4.87;;;;;;;17.26;70.16;101267.50;5075490;28;20266;-80
2021/06/24 01:42:51;;;;;;;5.60;4.80;;;;;;;17.28;70.05;101273.63;5076218;28;20954;-79
2021/06/24 01:45:18;;;;;;;6.60;4.50;;;;;;;17.26;70.16;101268.34;5076181;28;20293;-78
2021/06/24 01:47:44;;;;;;;8.63;4.90;;;;;;;17.26;70.21;101265.66;5076396;28;20211;-79
2021/06/24 01:50:12;;;;;;;7.50;4.60;;;;;;;17.25;70.28;101263.94;5076447;28;20705;-79
2021/06/24 01:52:41;;;;;;;8.50;4.70;;;;;;;17.25;70.37;101255.00;5076262;28;20228;-79
2021/06/24 01:55:08;;;;;;;7.67;4.90;;;;;;;17.23;70.20;101252.44;5076032;28;20222;-79
2021/06/24 01:57:36;;;;;;;8.63;5.20;;;;;;;17.23;70.42;101243.50;5076312;28;20247;-78
2021/06/24 02:00:07;;;;;;;6.43;4.83;;;;;;;17.22;70.27;101255.25;5076443;28;20695;-78
2021/06/24 02:02:33;;;;;;;7.37;5.07;;;;;;;17.19;70.23;101256.41;5076613;28;20686;-78
2021/06/24 02:05:00;;;;;;;14.13;4.83;;;;;;;17.18;70.62;101252.00;5076615;28;20236;-78
2021/06/24 02:07:27;;;;;;;6.70;4.73;;;;;;;17.17;70.59;101250.28;5076340;28;20286;-78
2021/06/24 02:09:53;;;;;;;8.27;5.10;;;;;;;17.17;70.53;101249.41;5076015;28;20320;-78
2021/06/24 02:12:20;;;;;;;6.57;5.00;;;;;;;17.15;70.52;101252.22;5076542;28;20612;-79
2021/06/24 02:14:46;;;;;;;10.80;5.20;;;;;;;17.15;70.71;101254.94;5076158;28;20246;-79
2021/06/24 02:17:15;;;;;;;5.40;4.63;;;;;;;17.14;70.75;101252.34;5075782;28;20293;-79
2021/06/24 02:19:41;;;;;;;5.97;4.83;;;;;;;17.12;70.64;101249.78;5072186;28;20320;-80
2021/06/24 02:22:08;;;;;;;6.77;5.03;;;;;;;17.12;70.70;101257.00;5095396;28;20316;-80
2021/06/24 02:24:34;;;;;;;6.17;4.73;;;;;;;17.12;70.67;101260.56;5095173;28;20203;-80
2021/06/24 02:27:01;;;;;;;7.50;5.03;;;;;;;17.11;70.96;101253.47;5095117;28;20296;-80
2021/06/24 02:29:28;;;;;;;6.87;4.60;;;;;;;17.11;70.67;101252.59;5075085;28;20287;-80
2021/06/24 02:31:54;;;;;;;7.53;4.80;;;;;;;17.12;70.61;101257.00;5074991;28;20293;-80
2021/06/24 02:34:23;;;;;;;6.47;4.60;;;;;;;17.11;70.65;101253.47;5075187;28;20213;-79
2021/06/24 02:36:50;;;;;;;6.73;5.30;;;;;;;17.09;70.72;101250.03;5075441;28;20638;-79
2021/06/24 02:39:16;;;;;;;8.67;4.80;;;;;;;17.09;70.68;101250.03;5075937;28;20264;-80
2021/06/24 02:41:43;;;;;;;8.87;4.90;;;;;;;17.08;70.60;101259.06;5075563;28;20313;-79
2021/06/24 02:44:10;;;;;;;7.93;4.93;;;;;;;17.08;70.74;101259.06;5075117;28;20252;-79
2021/06/24 02:46:36;;;;;;;10.07;5.43;;;;;;;17.06;70.70;101255.66;5075408;28;20205;-79
2021/06/24 02:49:03;;;;;;;6.97;5.67;;;;;;;17.06;70.68;101258.34;5075505;28;20752;-79
2021/06/24 02:51:31;;;;;;;7.73;4.50;;;;;;;17.05;70.74;101256.63;5075640;28;20302;-79
2021/06/24 02:53:58;;;;;;;9.70;5.63;;;;;;;17.03;70.92;101253.22;5075207;28;20215;-79
2021/06/24 02:56:24;;;;;;;5.83;4.63;;;;;;;17.03;71.04;101261.28;5075637;28;20748;-79
2021/06/24 02:58:51;;;;;;;10.20;5.03;;;;;;;17.00;71.09;101251.66;5075031;28;20665;-81
2021/06/24 03:01:18;;;;;;;7.53;5.30;;;;;;;17.01;71.47;101247.13;5074667;28;20255;-80
2021/06/24 03:03:45;;;;;;;8.73;5.47;;;;;;;16.99;71.08;101238.31;5074582;28;20298;-80
2021/06/24 03:06:11;;;;;;;9.37;5.33;;;;;;;16.97;71.21;101233.06;5074646;28;20233;-80
2021/06/24 03:08:39;;;;;;;9.47;5.37;;;;;;;16.96;71.46;101225.97;5074437;28;20315;-80
2021/06/24 03:11:06;;;;;;;10.50;5.50;;;;;;;16.94;71.50;101227.91;5086004;28;20287;-79
2021/06/24 03:13:32;;;;;;;7.27;5.37;;;;;;;16.91;71.54;101233.53;5073107;28;20285;-81
2021/06/24 03:15:59;;;;;;;6.77;4.97;;;;;;;16.89;71.81;101232.81;5069869;28;20285;-80
2021/06/24 03:18:25;;;;;;;9.10;5.77;;;;;;;16.89;72.10;101232.81;5053956;28;20257;-80
2021/06/24 03:20:52;;;;;;;7.70;5.10;;;;;;;16.88;71.72;101225.72;5094748;28;20281;-79
2021/06/24 03:23:20;;;;;;;10.67;5.57;;;;;;;16.88;71.80;101227.53;5094934;28;20217;-79
2021/06/24 03:25:48;;;;;;;7.40;4.97;;;;;;;16.87;71.83;101224.00;5095236;28;20677;-79
2021/06/24 03:28:15;;;;;;;8.77;5.10;;;;;;;16.85;71.80;101220.56;5094909;28;20317;-80
2021/06/24 03:30:42;;;;;;;8.47;5.13;;;;;;;16.85;71.68;101227.78;5094549;28;20292;-80
2021/06/24 03:33:11;;;;;;;8.30;5.60;;;;;;;16.82;71.66;101218.16;5078283;28;20202;-80
2021/06/24 03:35:37;;;;;;;8.33;5.30;;;;;;;16.81;72.00;101218.28;5074393;28;20642;-80
2021/06/24 03:38:04;;;;;;;10.13;5.83;;;;;;;16.82;71.95;101219.97;5073723;28;20779;-80
2021/06/24 03:40:31;;;;;;;8.17;5.43;;;;;;;16.80;71.88;101220.09;5091492;28;20198;-80
2021/06/24 03:42:59;;;;;;;7.50;5.43;;;;;;;16.79;71.87;101217.53;5094695;28;20258;-78
2021/06/24 03:45:25;;;;;;;9.37;5.63;;;;;;;16.77;71.75;101209.59;5094518;28;20707;-79
2021/06/24 03:47:52;;;;;;;5.60;4.80;;;;;;;16.77;71.87;101223.03;5093917;28;20295;-79
2021/06/24 03:50:19;;;;;;;6.53;5.80;;;;;;;16.77;72.02;101216.81;5094353;28;20210;-79
2021/06/24 03:52:45;;;;;;;9.97;5.63;;;;;;;16.76;71.88;101217.78;5093879;28;20710;-80
2021/06/24 03:55:15;;;;;;;7.93;5.67;;;;;;;16.77;72.05;101219.50;5094077;28;20251;-80
2021/06/24 03:57:42;;;;;;;9.60;6.10;;;;;;;16.76;72.09;101218.63;5073357;28;20205;-80
2021/06/24 04:00:12;;;;;;;7.33;5.17;;;;;;;16.75;72.17;101218.75;5074086;28;20300;-80
2021/06/24 04:02:39;;;;;;;9.97;5.90;;;;;;;16.74;72.01;101223.28;5073965;28;20723;-80
2021/06/24 04:05:06;;;;;;;10.53;5.63;;;;;;;16.74;72.02;101217.03;5074008;28;20291;-80
2021/06/24 04:07:32;;;;;;;7.03;5.53;;;;;;;16.73;72.16;101221.56;5074048;28;20311;-80
2021/06/24 04:09:59;;;;;;;9.87;5.60;;;;;;;16.71;72.10;101226.22;5073561;28;20326;-80
2021/06/24 04:12:26;;;;;;;8.37;6.10;;;;;;;16.71;72.09;101225.34;5074963;28;20635;-80
2021/06/24 04:14:52;;;;;;;9.37;5.70;;;;;;;16.70;72.15;101220.94;5074595;28;20237;-80
2021/06/24 04:17:20;;;;;;;9.43;6.10;;;;;;;16.69;72.16;101230.00;5059169;28;20641;-79
2021/06/24 04:19:47;;;;;;;6.20;5.53;;;;;;;16.67;72.17;101230.97;5079120;28;20313;-79
2021/06/24 04:22:13;;;;;;;9.90;5.20;;;;;;;16.66;72.23;101221.19;5084921;28;20282;-79
2021/06/24 04:24:40;;;;;;;7.57;5.73;;;;;;;16.65;72.19;101216.81;5070653;28;20288;-79
2021/06/24 04:27:07;;;;;;;7.87;5.47;;;;;;;16.64;72.43;101215.09;5062486;28;20248;-80
2021/06/24 04:29:34;;;;;;;7.93;6.00;;;;;;;16.64;72.52;101222.31;5085599;28;20218;-79
2021/06/24 04:32:00;;;;;;;11.20;6.73;;;;;;;16.64;72.50;101215.09;5080091;28;20241;-80
2021/06/24 04:34:28;;;;;;;8.47;5.70;;;;;;;16.65;72.54;101213.28;5067307;28;20276;-80
2021/06/24 04:36:55;;;;;;;8.70;5.93;;;;;;;16.65;72.38;101218.66;5058239;28;20206;-81
2021/06/24 04:39:22;;;;;;;9.63;5.70;;;;;;;16.62;72.48;101217.03;5057437;28;20224;-81
2021/06/24 04:41:48;;;;;;;9.83;5.83;;;;;;;16.64;72.56;101214.25;5057754;28;20257;-81
2021/06/24 04:44:15;;;;;;;7.87;5.63;;;;;;;16.63;72.56;101213.38;5057732;28;20216;-81
2021/06/24 04:46:42;;;;;;;9.57;5.67;;;;;;;16.63;72.46;101210.69;5058093;28;20277;-81
2021/06/24 04:49:08;;;;;;;7.53;5.70;;;;;;;16.63;72.54;101204.47;5057824;28;20980;-81
2021/06/24 04:51:36;;;;;;;9.80;6.67;;;;;;;16.64;72.63;101208.88;5061247;28;20300;-81
2021/06/24 04:54:03;;;;;;;12.00;5.63;;;;;;;16.65;72.75;101208.75;5060881;28;20296;-81
2021/06/24 04:56:30;;;;;;;9.37;5.53;;;;;;;16.67;72.80;101203.22;5059082;28;20206;-81
2021/06/24 04:58:56;;;;;;;7.47;5.97;;;;;;;16.67;72.79;101205.91;5061248;28;20258;-80
2021/06/24 05:01:23;;;;;;;10.37;6.17;;;;;;;16.67;72.46;101212.13;5057992;28;20316;-80
2021/06/24 05:03:50;;;;;;;7.90;5.90;;;;;;;16.65;72.59;101206.06;5058008;28;20257;-80
2021/06/24 05:06:16;;;;;;;11.07;6.47;;;;;;;16.66;72.77;101204.19;5089896;28;20282;-80
2021/06/24 05:08:45;;;;;;;6.87;5.87;;;;;;;16.67;72.49;101201.38;5078435;28;20228;-80
2021/06/24 05:11:11;;;;;;;7.07;5.57;;;;;;;16.67;72.60;101200.53;5077451;28;20279;-79
2021/06/24 05:13:38;;;;;;;12.67;6.20;;;;;;;16.69;72.84;101201.25;5077867;28;20202;-80
2021/06/24 05:16:06;;;;;;;12.43;6.10;;;;;;;16.71;72.80;101201.13;5077931;28;20552;-80
2021/06/24 05:18:34;;;;;;;6.27;5.63;;;;;;;16.71;72.70;101193.94;5077511;28;20236;-81
2021/06/24 05:21:01;;;;;;;9.57;6.03;;;;;;;16.72;72.95;101189.41;5077654;28;20209;-81
2021/06/24 05:23:28;;;;;;;9.87;5.53;;;;;;;16.72;72.93;101195.63;5077719;28;20230;-80
2021/06/24 05:25:56;;;;;;;8.30;5.70;;;;;;;16.75;72.71;101194.53;5077997;28;20211;-81
2021/06/24 05:28:23;;;;;;;11.50;6.57;;;;;;;16.77;72.97;101200.66;5077250;28;20233;-80
2021/06/24 05:30:50;;;;;;;10.33;5.67;;;;;;;16.78;72.92;101197.00;5077088;28;20297;-81
2021/06/24 05:33:17;;;;;;;11.77;5.80;;;;;;;16.79;72.78;101204.94;5078106;28;20309;-81
2021/06/24 05:35:46;;;;;;;6.93;5.67;;;;;;;16.80;72.80;101195.91;5078001;28;20236;-81
2021/06/24 05:38:13;;;;;;;11.57;6.13;;;;;;;16.82;72.74;101199.31;5077645;28;20590;-81
2021/06/24 05:40:40;;;;;;;11.83;6.20;;;;;;;16.85;72.72;101198.19;5077157;28;20695;-81
2021/06/24 05:43:08;;;;;;;8.37;5.77;;;;;;;16.87;72.78;101205.16;5076676;28;20756;-81
2021/06/24 05:45:35;;;;;;;7.93;5.70;;;;;;;16.91;72.63;101203.09;5056979;28;20238;-80
2021/06/24 05:48:01;;;;;;;10.27;6.53;;;;;;;16.93;72.52;101201.13;5056890;28;20760;-81
2021/06/24 05:50:28;;;;;;;10.10;6.70;;;;;;;16.96;72.64;101206.25;5056995;28;20234;-80
2021/06/24 05:52:55;;;;;;;7.43;5.73;;;;;;;16.97;72.52;101213.34;5057429;28;20203;-80
2021/06/24 05:55:47;;;;;;;9.73;6.03;;;;;;;16.98;72.33;101207.84;5056939;28;20629;-81
2021/06/24 05:58:13;;;;;;;11.93;6.87;;;;;;;16.97;72.42;101205.28;5056246;28;20233;-80
2021/06/24 06:00:40;;;;;;;8.57;5.50;;;;;;;17.00;72.50;101207.72;5056943;28;20685;-80
2021/06/24 06:03:07;;;;;;;12.63;5.93;;;;;;;17.04;72.48;101217.25;5057073;28;20376;-82
2021/06/24 06:05:34;;;;;;;9.00;6.40;;;;;;;17.07;72.72;101217.00;5056811;28;20226;-81
2021/06/24 06:08:00;;;;;;;10.13;6.33;;;;;;;17.11;72.47;101217.59;5056491;28;20276;-81
2021/06/24 06:10:27;;;;;;;11.27;6.17;;;;;;;17.12;72.28;101222.00;5056469;28;20295;-81
2021/06/24 06:12:54;;;;;;;6.90;6.20;;;;;;;17.11;72.12;101221.16;5056961;28;20280;-81
2021/06/24 06:15:22;;;;;;;9.53;6.37;;;;;;;17.11;72.13;101226.53;5057045;28;20294;-81
2021/06/24 06:17:49;;;;;;;7.73;5.93;;;;;;;17.13;72.00;101227.28;5056819;28;20396;-81
2021/06/24 06:20:16;;;;;;;8.07;6.73;;;;;;;17.15;72.11;101228.00;5057294;28;20208;-80
2021/06/24 06:22:42;;;;;;;11.73;6.50;;;;;;;17.16;72.01;101232.41;5057003;28;20286;-80
2021/06/24 06:25:10;;;;;;;9.50;7.13;;;;;;;17.18;71.77;101233.16;5056528;28;20214;-81
2021/06/24 06:27:37;;;;;;;13.70;6.67;;;;;;;17.21;71.70;101229.31;5055504;28;20204;-81
2021/06/24 06:30:04;;;;;;;9.33;6.40;;;;;;;17.23;71.72;101238.13;5056081;28;20315;-81
2021/06/24 06:32:32;;;;;;;11.60;6.50;;;;;;;17.24;71.72;101240.69;5056253;28;20208;-81
2021/06/24 06:34:58;;;;;;;9.13;6.47;;;;;;;17.27;71.65;101251.22;5055661;28;20304;-80
2021/06/24 06:37:25;;;;;;;8.80;6.77;;;;;;;17.30;71.57;101253.66;5056017;28;20205;-79
2021/06/24 06:39:52;;;;;;;8.17;6.50;;;;;;;17.33;71.70;101250.72;5056013;28;20256;-78
2021/06/24 06:42:18;;;;;;;10.73;6.27;;;;;;;17.38;71.50;101260.28;5055822;28;20224;-80
2021/06/24 06:44:45;;;;;;;10.70;6.80;;;;;;;17.41;71.53;101257.31;5055306;28;20240;-81
2021/06/24 06:47:12;;;;;;;9.43;6.33;;;;;;;17.43;71.52;101263.41;5055685;28;20860;-81
2021/06/24 06:49:40;;;;;;;7.97;5.73;;;;;;;17.44;71.55;101251.66;5055806;28;20675;-81
2021/06/24 06:52:07;;;;;;;8.67;6.73;;;;;;;17.46;71.44;101258.66;5055515;28;20648;-81
2021/06/24 06:54:33;;;;;;;8.90;6.53;;;;;;;17.49;71.29;101260.22;5054849;28;20302;-81
2021/06/24 06:57:00;;;;;;;7.97;7.17;;;;;;;17.52;71.29;101262.69;5055906;28;20660;-80
2021/06/24 06:59:26;;;;;;;9.40;6.37;;;;;;;17.51;71.10;101260.97;5072113;28;20285;-81
2021/06/24 07:01:53;;;;;;;11.33;6.70;;;;;;;17.54;71.28;101248.09;5076194;28;20287;-81
2021/06/24 07:04:21;;;;;;;8.70;6.57;;;;;;;17.59;70.95;101255.78;5075565;28;20271;-81
2021/06/24 07:06:49;;;;;;;10.20;7.10;;;;;;;17.61;70.96;101257.38;5075986;28;20307;-80
2021/06/24 07:09:15;;;;;;;9.53;7.10;;;;;;;17.63;71.06;101254.56;5075305;28;20260;-80
2021/06/24 07:11:42;;;;;;;12.50;7.00;;;;;;;17.67;71.11;101253.34;5074682;28;20289;-80
2021/06/24 07:14:09;;;;;;;8.33;7.53;;;;;;;17.68;70.96;101250.53;5075261;28;20225;-81
2021/06/24 07:16:35;;;;;;;13.67;7.27;;;;;;;17.73;71.09;101254.69;5075936;28;20249;-81
2021/06/24 07:19:02;;;;;;;9.47;6.07;;;;;;;17.77;70.98;101253.41;5075516;28;20306;-81
2021/06/24 07:21:28;;;;;;;9.77;6.83;;;;;;;17.77;70.84;101245.34;5076322;28;20204;-79
2021/06/24 07:23:56;;;;;;;11.63;7.07;;;;;;;17.79;70.75;101252.31;5075536;28;20299;-81
2021/06/24 07:26:23;;;;;;;9.97;6.93;;;;;;;17.83;70.71;101250.22;5074760;28;20297;-81
2021/06/24 07:28:50;;;;;;;10.57;6.80;;;;;;;17.85;70.76;101245.56;5075047;28;20665;-80
2021/06/24 07:31:16;;;;;;;9.30;6.83;;;;;;;17.89;70.68;101245.19;5075884;28;20251;-80
2021/06/24 07:33:43;;;;;;;13.17;7.50;;;;;;;17.93;70.80;101233.13;5075186;28;20295;-80
2021/06/24 07:36:09;;;;;;;10.13;6.80;;;;;;;18.01;70.81;101240.59;5075878;28;20291;-80
2021/06/24 07:38:36;;;;;;;13.93;7.67;;;;;;;18.08;70.69;101240.94;5075359;28;20229;-80
2021/06/24 07:41:04;;;;;;;9.20;7.37;;;;;;;18.14;70.36;101233.16;5076053;28;20235;-80
2021/06/24 07:43:31;;;;;;;10.60;7.10;;;;;;;18.17;70.16;101237.44;5075745;28;20315;-80
2021/06/24 07:45:57;;;;;;;12.93;7.80;;;;;;;18.19;70.08;101241.69;5075881;28;20295;-80
2021/06/24 07:48:24;;;;;;;10.77;7.00;;;;;;;18.21;69.78;101236.19;5075961;28;20257;-80
2021/06/24 07:50:50;;;;;;;8.33;7.07;;;;;;;18.25;69.94;101237.63;5075099;28;20210;-79
2021/06/24 07:53:17;;;;;;;8.37;7.43;;;;;;;18.29;70.17;101229.13;5075187;28;20299;-80
2021/06/24 07:55:44;;;;;;;10.17;7.20;;;;;;;18.36;69.95;101226.75;5075412;28;20304;-80
2021/06/24 07:58:12;;;;;;;13.27;7.33;;;;;;;18.40;69.63;101230.91;5075057;28;20255;-81
2021/06/24 08:00:39;;;;;;;11.10;7.87;;;;;;;18.41;69.50;101235.31;5072816;28;20197;-81
2021/06/24 08:03:06;;;;;;;9.27;7.37;;;;;;;18.41;69.55;101227.22;5073159;28;20311;-81
2021/06/24 08:05:33;;;;;;;8.73;6.50;;;;;;;18.43;69.54;101227.09;5073096;28;20224;-80
2021/06/24 08:08:00;;;;;;;10.93;6.90;;;;;;;18.43;69.53;101225.25;5073506;28;20229;-80
2021/06/24 08:10:27;;;;;;;9.60;7.20;;;;;;;18.49;69.69;101218.44;5072740;28;20293;-79
2021/06/24 08:12:53;;;;;;;10.07;7.43;;;;;;;18.54;69.64;101219.75;5073189;28;20240;-80
2021/06/24 08:15:25;;;;;;;9.30;6.83;;;;;;;18.61;69.53;101214.72;5073677;28;20640;-80
2021/06/24 08:17:52;;;;;;;11.37;7.10;;;;;;;18.67;69.30;101216.88;5073729;28;20628;-80
2021/06/24 08:20:19;;;;;;;10.33;6.97;;;;;;;18.71;68.98;101210.22;5087925;28;20205;-80
2021/06/24 08:22:46;;;;;;;9.10;7.33;;;;;;;18.76;68.95;101212.50;5092773;28;20822;-80
2021/06/24 08:25:14;;;;;;;11.37;6.73;;;;;;;18.79;68.96;101201.44;5092720;28;20213;-80
2021/06/24 08:27:41;;;;;;;8.73;7.07;;;;;;;18.83;68.67;101208.25;5093667;28;20205;-80
2021/06/24 08:30:09;;;;;;;9.53;6.97;;;;;;;18.87;68.34;101207.00;5093210;28;20316;-80
2021/06/24 08:32:37;;;;;;;7.47;6.73;;;;;;;18.94;68.38;101205.47;5093535;28;20291;-80
2021/06/24 08:35:05;;;;;;;10.83;7.43;;;;;;;19.00;68.13;101199.50;5093547;28;20214;-80
2021/06/24 08:37:32;;;;;;;12.10;7.70;;;;;;;19.04;67.85;101195.53;5093307;28;20296;-80
2021/06/24 08:39:58;;;;;;;11.80;7.47;;;;;;;19.11;67.78;101195.84;5093685;28;20633;-80
2021/06/24 08:42:25;;;;;;;12.07;7.97;;;;;;;19.17;67.96;101200.72;5093446;28;20288;-80
2021/06/24 08:44:52;;;;;;;12.73;7.60;;;;;;;19.23;67.50;101200.13;5093984;28;20260;-81
2021/06/24 08:47:20;;;;;;;11.60;7.73;;;;;;;19.29;67.60;101202.28;5093382;28;20214;-81
2021/06/24 08:49:52;;;;;;;10.60;7.57;;;;;;;19.34;67.13;101192.78;5092409;28;20230;-81
2021/06/24 08:52:19;;;;;;;8.40;7.27;;;;;;;19.40;66.95;101203.00;5093075;28;20186;-81
2021/06/24 08:54:45;;;;;;;11.10;7.20;;;;;;;19.48;66.73;101191.50;5093700;28;20214;-80
2021/06/24 08:57:14;;;;;;;9.47;7.00;;;;;;;19.59;66.23;101195.94;5093818;28;20277;-79
2021/06/24 08:59:40;;;;;;;11.07;7.67;;;;;;;19.66;66.07;101194.38;5093825;28;20229;-79
2021/06/24 09:02:10;;;;;;;9.37;7.57;;;;;;;19.75;65.79;101186.25;5093492;28;20301;-80
2021/06/24 09:04:39;;;;;;;11.53;7.00;;;;;;;19.88;66.00;101177.03;5093217;28;20268;-80
2021/06/24 09:07:09;;;;;;;8.17;6.90;;;;;;;20.00;65.29;101174.00;5093844;28;20642;-80
2021/06/24 09:09:37;;;;;;;8.53;6.77;;;;;;;20.07;64.61;101175.09;5093413;28;20283;-80
2021/06/24 09:12:06;;;;;;;8.57;6.90;;;;;;;20.14;64.28;101171.81;5093521;28;20201;-80
2021/06/24 09:14:41;;;;;;;8.23;6.70;;;;;;;20.24;64.91;101170.81;5093597;28;20733;-80
2021/06/24 09:17:09;;;;;;;8.73;6.30;;;;;;;20.37;63.98;101179.50;5095283;28;20262;-79
2021/06/24 09:19:39;;;;;;;6.60;5.13;;;;;;;20.47;63.20;101181.28;5096995;28;20229;-81
2021/06/24 09:22:09;;;;;;;8.50;5.73;;;;;;;20.53;62.04;101186.97;5096284;28;20226;-80
2021/06/24 09:24:37;;;;;;;6.13;5.23;;;;;;;20.58;61.88;101186.53;5096724;28;20743;-80
2021/06/24 09:27:05;;;;;;;9.20;5.27;;;;;;;20.65;61.72;101184.91;5096651;28;20240;-80
2021/06/24 09:29:33;;;;;;;7.07;5.40;;;;;;;20.76;61.27;101182.91;5097331;28;20312;-80
2021/06/24 09:32:01;;;;;;;5.40;4.90;;;;;;;20.86;60.47;101192.81;5097135;28;20200;-80
2021/06/24 09:34:28;;;;;;;6.33;4.63;;;;;;;20.94;59.89;101190.22;5096894;28;20659;-80
2021/06/24 09:36:59;;;;;;;6.33;4.77;;;;;;;20.97;59.15;101189.88;5096921;28;20600;-81
2021/06/24 09:39:34;;;;;;;7.23;4.80;;;;;;;21.02;58.79;101191.16;5096606;28;20724;-81
2021/06/24 09:42:07;;;;;;;6.93;4.20;;;;;;;21.11;58.52;101184.84;5096795;28;20230;-81
2021/06/24 09:44:37;;;;;;;8.18;4.70;;;;;;;21.21;58.19;101187.50;5097220;28;20305;-81
2021/06/24 09:47:15;;;;;;;6.72;4.40;;;;;;;21.27;57.09;101189.59;5097838;28;20200;-81
2021/06/24 09:49:42;;;;;;;5.87;4.47;;;;;;;21.29;56.30;101190.31;5096945;28;20596;-80
2021/06/24 09:52:09;;;;;;;4.00;3.60;;;;;;;21.31;55.93;101191.00;5097156;28;20240;-81
2021/06/24 09:54:42;;;;;;;5.03;3.90;;;;;;;21.33;56.06;101188.97;5097544;28;20651;-80
2021/06/24 09:57:09;;;;;;;5.83;3.93;;;;;;;21.37;55.84;101187.66;5097711;28;20573;-80
2021/06/24 09:59:38;;;;;;;5.10;3.67;;;;;;;21.39;56.04;101190.22;5097579;28;20913;-80
2021/06/24 10:02:13;;;;;;;5.73;3.70;;;;;;;21.42;55.91;101187.22;5096704;28;20209;-80
2021/06/24 10:04:42;;;;;;;6.68;3.83;;;;;;;21.46;55.76;101189.47;5096419;28;20269;-80
2021/06/24 10:07:12;;;;;;;3.83;3.53;;;;;;;21.48;54.92;101182.03;5096318;28;20266;-80
2021/06/24 10:09:41;;;;;;;4.43;3.93;;;;;;;21.53;55.23;101186.13;5096284;28;20231;-80
2021/06/24 10:12:10;;;;;;;4.13;3.60;;;;;;;21.60;55.24;101188.06;5096507;28;20640;-79
2021/06/24 10:14:38;;;;;;;6.37;3.80;;;;;;;21.68;55.05;101192.69;5096331;28;20207;-80
2021/06/24 10:17:06;;;;;;;4.90;4.13;;;;;;;21.72;54.59;101180.53;5096752;28;20242;-80
2021/06/24 10:19:35;;;;;;;5.57;3.70;;;;;;;21.78;54.62;101182.63;5096562;28;20310;-79
2021/06/24 10:22:06;;;;;;;9.43;4.60;;;;;;;21.88;54.61;101187.94;5097236;28;20294;-80
2021/06/24 10:24:36;;;;;;;5.18;4.50;;;;;;;21.98;54.71;101180.59;5096655;28;20641;-79
2021/06/24 10:27:08;;;;;;;7.47;4.18;;;;;;;22.06;54.17;101183.38;5096839;28;20658;-80
2021/06/24 10:29:47;;;;;;;6.05;4.35;;;;;;;22.12;54.11;101186.31;5096342;28;20219;-79
2021/06/24 10:32:29;;;;;;;5.35;3.83;;;;;;;22.23;54.04;101184.34;5096034;28;20214;-79
2021/06/24 10:34:56;;;;;;;6.07;4.45;;;;;;;22.35;53.67;101174.94;5095875;28;20222;-79
2021/06/24 10:37:24;;;;;;;6.28;4.47;;;;;;;22.40;53.31;101181.56;5095280;28;20294;-79
2021/06/24 10:39:52;;;;;;;4.75;3.95;;;;;;;22.43;53.37;101177.69;5095638;28;20619;-80
2021/06/24 10:42:22;;;;;;;5.32;4.05;;;;;;;22.47;52.99;101176.34;5096613;28;20678;-79
2021/06/24 10:44:55;;;;;;;6.53;4.60;;;;;;;22.51;52.86;101166.88;5096029;28;20769;-79
2021/06/24 10:47:30;;;;;;;4.75;4.05;;;;;;;22.56;52.65;101167.25;5096118;28;20192;-79
2021/06/24 10:50:41;;;;;;;5.55;3.90;;;;;;;22.64;52.14;101170.00;5095885;28;20218;-79
2021/06/24 10:53:36;;;;;;;5.70;4.03;;;;;;;22.70;51.34;101165.78;5095801;28;20684;-80
2021/06/24 10:56:21;;;;;;;4.55;3.65;;;;;;;22.77;51.40;101162.25;5095500;28;20189;-80
2021/06/24 10:58:49;;;;;;;5.75;4.20;;;;;;;22.85;50.37;101161.47;5095612;28;20311;-79
2021/06/24 11:01:18;;;;;;;4.30;3.95;;;;;;;22.89;50.47;101162.84;5096018;28;20753;-78
2021/06/24 11:03:47;;;;;;;5.30;3.60;;;;;;;22.97;50.61;101156.56;5076961;28;20293;-79
2021/06/24 11:06:16;;;;;;;6.03;3.75;;;;;;;23.03;50.17;101164.06;5071017;28;20691;-78
2021/06/24 11:08:44;;;;;;;6.35;3.80;;;;;;;23.06;50.26;101158.31;5083259;28;20713;-78
2021/06/24 11:11:12;;;;;;;5.78;4.15;;;;;;;23.13;49.94;101151.16;5076354;28;20232;-78
2021/06/24 11:13:47;;;;;;;4.25;3.85;;;;;;;23.18;49.69;101146.09;5082395;28;20245;-78
2021/06/24 11:16:35;;;;;;;6.15;4.32;;;;;;;23.24;49.44;101144.59;5073236;28;20201;-78
2021/06/24 11:19:04;;;;;;;4.90;3.85;;;;;;;23.27;49.48;101145.13;5077541;28;20587;-78
2021/06/24 11:21:50;;;;;;;4.35;3.60;;;;;;;23.34;49.85;101142.56;5074792;28;20232;-78
2021/06/24 11:24:19;;;;;;;4.50;3.90;;;;;;;23.40;50.42;101140.03;5074517;28;20215;-78
2021/06/24 11:26:48;;;;;;;5.45;3.90;;;;;;;23.48;50.63;101131.84;5093275;28;20203;-79
2021/06/24 11:29:19;;;;;;;4.50;3.75;;;;;;;23.57;50.52;101132.75;5062550;28;20271;-78
2021/06/24 11:31:51;;;;;;;8.23;3.55;;;;;;;23.66;50.17;101129.00;5082109;28;20224;-78